Time;durP1;ratioP1;P1;durP2;ratioP2;P2;SDS_P1;SDS_P2;PMS_P1;PMS_P2;Temp;Humidity;BMP_temperature;BMP_pressure;BME280_temperature;BME280_humidity;BME280_pressure;Samples;Min_cycle;Max_cycle;Signal;HPM_P1;HPM_P2
2023/03/14 00:02:18;;;;;;;;;;;10.20;99.90;;;;;;5079549;28;19932;-85
2023/03/14 00:04:44;;;;;;;;;;;10.20;99.90;;;;;;5058844;28;19928;-85
2023/03/14 00:07:10;;;;;;;;;;;10.30;99.90;;;;;;5061991;28;20344;-85
2023/03/14 00:09:36;;;;;;;;;;;10.30;99.90;;;;;;5075058;28;19929;-85
2023/03/14 00:12:02;;;;;;;;;;;10.30;99.90;;;;;;5063943;28;19970;-85
2023/03/14 00:14:28;;;;;;;;;;;10.40;99.90;;;;;;5058738;28;19959;-85
2023/03/14 00:16:54;;;;;;;;;;;10.30;99.90;;;;;;5075987;28;19928;-85
2023/03/14 00:19:19;;;;;;;;;;;10.30;99.90;;;;;;5061000;28;19970;-85
2023/03/14 00:21:45;;;;;;;;;;;10.40;99.90;;;;;;5061579;28;20450;-85
2023/03/14 00:24:10;;;;;;;;;;;10.40;99.90;;;;;;5060723;28;19928;-84
2023/03/14 00:26:36;;;;;;;;;;;10.40;99.90;;;;;;5056435;28;19924;-85
2023/03/14 00:29:01;;;;;;;;;;;10.30;99.90;;;;;;5072640;28;19935;-85
2023/03/14 00:31:27;;;;;;;;;;;10.40;99.90;;;;;;5063569;28;20027;-85
2023/03/14 00:33:53;;;;;;;;;;;10.40;99.90;;;;;;5062400;28;19931;-85
2023/03/14 00:36:20;;;;;;;;;;;10.40;99.90;;;;;;5061634;28;19924;-85
2023/03/14 00:38:46;;;;;;;;;;;10.40;99.90;;;;;;5099139;28;19924;-84
2023/03/14 00:41:13;;;;;;;;;;;10.50;99.90;;;;;;5068760;28;19924;-85
2023/03/14 00:43:39;;;;;;;;;;;10.40;99.90;;;;;;5061630;28;19925;-86
2023/03/14 00:46:05;;;;;;;;;;;10.50;99.90;;;;;;5063458;28;20015;-85
2023/03/14 00:48:30;;;;;;;;;;;10.50;99.90;;;;;;5061180;28;19931;-85
2023/03/14 00:50:56;;;;;;;;;;;10.50;99.90;;;;;;5091976;28;19929;-85
2023/03/14 00:53:22;;;;;;;;;;;10.50;99.90;;;;;;5079784;28;19928;-85
2023/03/14 00:55:48;;;;;;;;;;;10.40;99.90;;;;;;5062428;28;20366;-85
2023/03/14 00:58:14;;;;;;;;;;;10.40;99.90;;;;;;5080742;28;19928;-85
2023/03/14 01:00:40;;;;;;;;;;;10.40;99.90;;;;;;5063348;28;19944;-84
2023/03/14 01:03:06;;;;;;;;;;;10.30;99.90;;;;;;5093876;28;19928;-84
2023/03/14 01:05:32;;;;;;;;;;;10.30;99.90;;;;;;5079450;28;19973;-84
2023/03/14 01:07:57;;;;;;;;;;;10.20;99.90;;;;;;5092561;28;19929;-84
2023/03/14 01:10:23;;;;;;;;;;;10.20;99.90;;;;;;5058975;28;20017;-84
2023/03/14 01:12:49;;;;;;;;;;;10.10;99.90;;;;;;5059906;28;19967;-85
2023/03/14 01:15:14;;;;;;;;;;;10.10;99.90;;;;;;5059344;28;19925;-85
2023/03/14 01:17:40;;;;;;;;;;;10.10;99.90;;;;;;5079686;28;19978;-84
2023/03/14 01:20:08;;;;;;;;;;;10.10;99.90;;;;;;5061986;28;20628;-85
2023/03/14 01:22:34;;;;;;;;;;;10.10;99.90;;;;;;5057435;28;19928;-85
2023/03/14 01:25:00;;;;;;;;;;;10.20;99.90;;;;;;5061155;28;19974;-84
2023/03/14 01:27:26;;;;;;;;;;;10.20;99.90;;;;;;5061829;28;19924;-85
2023/03/14 01:29:51;;;;;;;;;;;10.20;99.90;;;;;;5062652;28;19964;-85
2023/03/14 01:32:17;;;;;;;;;;;10.20;99.90;;;;;;5059902;28;20567;-85
2023/03/14 01:34:42;;;;;;;;;;;10.20;99.90;;;;;;5055802;28;19935;-85
2023/03/14 01:37:08;;;;;;;;;;;10.20;99.90;;;;;;5071802;28;19950;-85
2023/03/14 01:39:33;;;;;;;;;;;10.20;99.90;;;;;;5061478;28;19967;-85
2023/03/14 01:42:00;;;;;;;;;;;10.10;99.90;;;;;;5089917;28;19924;-85
2023/03/14 01:44:26;;;;;;;;;;;10.10;99.90;;;;;;5059390;28;19993;-85
2023/03/14 01:46:51;;;;;;;;;;;10.00;99.90;;;;;;5067746;28;20391;-85
2023/03/14 01:49:32;;;;;;;;;;;10.00;99.90;;;;;;5096553;28;19955;-85
2023/03/14 01:52:10;;;;;;;;;;;9.90;99.90;;;;;;5074372;28;19971;-85
2023/03/14 01:54:40;;;;;;;;;;;9.80;99.90;;;;;;5064093;28;19924;-85
2023/03/14 01:57:12;;;;;;;;;;;9.80;99.90;;;;;;5080899;28;19925;-85
2023/03/14 01:59:39;;;;;;;;;;;9.90;99.90;;;;;;5094742;28;19924;-85
2023/03/14 02:02:07;;;;;;;;;;;9.90;99.90;;;;;;5089467;28;20446;-85
2023/03/14 02:04:34;;;;;;;;;;;9.90;99.90;;;;;;5083017;28;19924;-85
2023/03/14 02:07:17;;;;;;;;;;;10.00;99.90;;;;;;5082943;28;19974;-85
2023/03/14 02:09:43;;;;;;;;;;;10.00;99.90;;;;;;5083049;28;20255;-85
2023/03/14 02:12:09;;;;;;;;;;;10.10;99.90;;;;;;5069068;28;19936;-85
2023/03/14 02:14:36;;;;;;;;;;;10.10;99.90;;;;;;5064574;28;19924;-85
2023/03/14 02:17:03;;;;;;;;;;;10.10;99.90;;;;;;5062918;28;19963;-85
2023/03/14 02:19:48;;;;;;;;;;;10.10;99.90;;;;;;5066415;28;19932;-85
2023/03/14 02:22:14;;;;;;;;;;;10.10;99.90;;;;;;5081238;28;19924;-85
2023/03/14 02:24:46;;;;;;;;;;;10.10;99.90;;;;;;5074586;28;19925;-85
2023/03/14 02:27:19;;;;;;;;;;;10.10;99.90;;;;;;5081878;28;19925;-85
2023/03/14 02:29:50;;;;;;;;;;;10.00;99.90;;;;;;5065062;28;19925;-85
2023/03/14 02:32:16;;;;;;;;;;;10.00;99.90;;;;;;5080833;28;19924;-86
2023/03/14 02:34:43;;;;;;;;;;;10.00;99.90;;;;;;5064640;28;19931;-85
2023/03/14 02:37:09;;;;;;;;;;;9.90;99.90;;;;;;5098756;28;19928;-85
2023/03/14 02:39:36;;;;;;;;;;;9.90;99.90;;;;;;5063798;28;19932;-86
2023/03/14 02:42:02;;;;;;;;;;;9.80;99.90;;;;;;5098661;28;19929;-85
2023/03/14 02:44:27;;;;;;;;;;;9.70;99.90;;;;;;5064643;28;19990;-85
2023/03/14 02:46:53;;;;;;;;;;;9.60;99.90;;;;;;5098607;28;19925;-85
2023/03/14 02:49:19;;;;;;;;;;;9.60;99.90;;;;;;5097302;28;19928;-85
2023/03/14 02:51:44;;;;;;;;;;;9.60;99.90;;;;;;5064371;28;19943;-85
2023/03/14 02:54:10;;;;;;;;;;;9.50;99.90;;;;;;5064762;28;19964;-85
2023/03/14 02:56:37;;;;;;;;;;;9.50;99.90;;;;;;5057811;28;19936;-85
2023/03/14 02:59:03;;;;;;;;;;;9.50;99.90;;;;;;5084805;28;19928;-85
2023/03/14 03:01:28;;;;;;;;;;;9.50;99.90;;;;;;5092169;28;19924;-84
2023/03/14 03:03:54;;;;;;;;;;;9.40;99.90;;;;;;5065768;28;20274;-85
2023/03/14 03:06:20;;;;;;;;;;;9.40;99.90;;;;;;5059592;28;19982;-85
2023/03/14 03:08:45;;;;;;;;;;;9.30;99.90;;;;;;5090851;28;19932;-84
2023/03/14 03:11:11;;;;;;;;;;;9.30;99.90;;;;;;5045988;28;19925;-84
2023/03/14 03:13:36;;;;;;;;;;;9.20;99.90;;;;;;5061996;28;19925;-85
2023/03/14 03:16:02;;;;;;;;;;;9.20;99.90;;;;;;5078828;28;19976;-85
2023/03/14 03:18:28;;;;;;;;;;;9.20;99.90;;;;;;5087793;28;19924;-85
2023/03/14 03:20:53;;;;;;;;;;;9.10;99.90;;;;;;5059758;28;19943;-85
2023/03/14 03:23:19;;;;;;;;;;;9.10;99.90;;;;;;5089467;28;19928;-84
2023/03/14 03:25:51;;;;;;;;;;;9.10;99.90;;;;;;5092242;28;19932;-85
2023/03/14 03:28:17;;;;;;;;;;;9.10;99.90;;;;;;5080196;28;19924;-85
2023/03/14 03:30:43;;;;;;;;;;;9.10;99.90;;;;;;5069520;28;19931;-86
2023/03/14 03:33:08;;;;;;;;;;;9.10;99.90;;;;;;5060170;28;19928;-86
2023/03/14 03:35:34;;;;;;;;;;;9.10;99.90;;;;;;5083126;28;19935;-86
2023/03/14 03:38:00;;;;;;;;;;;9.20;99.90;;;;;;5044617;28;19924;-85
2023/03/14 03:40:26;;;;;;;;;;;9.10;99.90;;;;;;5061133;28;19974;-85
2023/03/14 03:42:51;;;;;;;;;;;9.20;99.90;;;;;;5046993;28;19926;-85
2023/03/14 03:45:17;;;;;;;;;;;9.20;99.90;;;;;;5093219;28;19952;-86
2023/03/14 03:47:42;;;;;;;;;;;9.20;99.90;;;;;;5091706;28;19924;-86
2023/03/14 03:50:08;;;;;;;;;;;9.20;99.90;;;;;;5082263;28;19984;-85
2023/03/14 03:52:34;;;;;;;;;;;9.20;99.90;;;;;;5074123;28;19992;-86
2023/03/14 03:54:59;;;;;;;;;;;9.20;99.90;;;;;;5092502;28;19959;-86
2023/03/14 03:57:25;;;;;;;;;;;9.10;99.90;;;;;;5074222;28;19930;-86
2023/03/14 03:59:50;;;;;;;;;;;9.20;99.90;;;;;;5061991;28;20411;-84
2023/03/14 04:02:16;;;;;;;;;;;9.20;99.90;;;;;;5062171;28;19984;-85
2023/03/14 04:04:42;;;;;;;;;;;9.20;99.90;;;;;;5062465;28;19931;-86
2023/03/14 04:07:07;;;;;;;;;;;9.20;99.90;;;;;;5041547;28;19928;-85
2023/03/14 04:09:33;;;;;;;;;;;9.20;99.90;;;;;;5062097;28;21830;-85
2023/03/14 04:11:58;;;;;;;;;;;9.20;99.90;;;;;;5091618;28;20391;-85
2023/03/14 04:14:24;;;;;;;;;;;9.10;99.90;;;;;;5040802;28;19970;-84
2023/03/14 04:16:49;;;;;;;;;;;9.10;99.90;;;;;;5064071;28;19932;-85
2023/03/14 04:19:15;;;;;;;;;;;9.10;99.90;;;;;;5063089;28;19928;-85
2023/03/14 04:21:44;;;;;;;;;;;9.10;99.90;;;;;;5058793;28;19945;-85
2023/03/14 04:24:10;;;;;;;;;;;9.00;99.90;;;;;;5092244;28;19946;-85
2023/03/14 04:26:35;;;;;;;;;;;9.10;99.90;;;;;;5055950;28;20418;-85
2023/03/14 04:29:01;;;;;;;;;;;9.10;99.90;;;;;;5080919;28;19924;-84
2023/03/14 04:31:26;;;;;;;;;;;9.00;99.90;;;;;;5080184;28;19924;-84
2023/03/14 04:33:52;;;;;;;;;;;9.00;99.90;;;;;;5063754;28;19925;-84
2023/03/14 04:36:18;;;;;;;;;;;9.00;99.90;;;;;;5095196;28;19931;-85
2023/03/14 04:38:43;;;;;;;;;;;9.00;99.90;;;;;;5096063;28;19928;-85
2023/03/14 04:41:09;;;;;;;;;;;9.00;99.90;;;;;;5095862;28;19936;-85
2023/03/14 04:43:34;;;;;;;;;;;9.00;99.90;;;;;;5095046;28;19929;-85
2023/03/14 04:46:00;;;;;;;;;;;9.00;99.90;;;;;;5096359;28;19932;-85
2023/03/14 04:48:26;;;;;;;;;;;9.00;99.90;;;;;;5066400;28;19956;-85
2023/03/14 04:50:52;;;;;;;;;;;9.00;99.90;;;;;;5063031;28;19931;-86
2023/03/14 04:53:17;;;;;;;;;;;9.00;99.90;;;;;;5061714;28;19966;-85
2023/03/14 04:55:50;;;;;;;;;;;9.00;99.90;;;;;;5060512;28;19933;-85
2023/03/14 04:58:16;;;;;;;;;;;9.10;99.90;;;;;;5075771;28;19986;-85
2023/03/14 05:00:41;;;;;;;;;;;9.10;99.90;;;;;;5076477;28;20434;-85
2023/03/14 05:03:07;;;;;;;;;;;9.10;99.90;;;;;;5050687;28;19924;-86
2023/03/14 05:05:33;;;;;;;;;;;9.10;99.90;;;;;;5061902;28;19924;-85
2023/03/14 05:07:58;;;;;;;;;;;9.10;99.90;;;;;;5082971;28;19990;-84
2023/03/14 05:10:24;;;;;;;;;;;9.10;99.90;;;;;;5059667;28;19939;-84
2023/03/14 05:12:49;;;;;;;;;;;9.10;99.90;;;;;;5059589;28;20299;-85
2023/03/14 05:15:15;;;;;;;;;;;9.20;99.90;;;;;;5079954;28;19939;-85
2023/03/14 05:17:41;;;;;;;;;;;9.20;99.90;;;;;;5060124;28;19924;-85
2023/03/14 05:20:09;;;;;;;;;;;9.20;99.90;;;;;;5065439;28;19982;-85
2023/03/14 05:22:35;;;;;;;;;;;9.20;99.90;;;;;;5060779;28;19924;-85
2023/03/14 05:25:01;;;;;;;;;;;9.20;99.90;;;;;;5085866;28;19931;-85
2023/03/14 05:27:26;;;;;;;;;;;9.20;99.90;;;;;;5063884;28;19935;-84
2023/03/14 05:29:52;;;;;;;;;;;9.20;99.90;;;;;;5053515;28;19991;-85
2023/03/14 05:32:17;;;;;;;;;;;9.20;99.90;;;;;;5093392;28;19932;-85
2023/03/14 05:34:43;;;;;;;;;;;9.10;99.90;;;;;;5063501;28;20551;-84
2023/03/14 05:37:08;;;;;;;;;;;9.10;99.90;;;;;;5080138;28;19991;-84
2023/03/14 05:39:34;;;;;;;;;;;9.10;99.90;;;;;;5070228;28;19928;-85
2023/03/14 05:41:59;;;;;;;;;;;9.10;99.90;;;;;;5067958;28;19928;-85
2023/03/14 05:44:25;;;;;;;;;;;9.00;99.90;;;;;;5083885;28;19973;-84
2023/03/14 05:46:51;;;;;;;;;;;9.00;99.90;;;;;;5067641;28;19939;-85
2023/03/14 05:49:16;;;;;;;;;;;9.00;99.90;;;;;;5094993;28;20422;-85
2023/03/14 05:51:42;;;;;;;;;;;8.90;99.90;;;;;;5067516;28;19925;-85
2023/03/14 05:54:07;;;;;;;;;;;8.90;99.90;;;;;;5095648;28;19971;-85
2023/03/14 05:56:33;;;;;;;;;;;8.90;99.90;;;;;;5094907;28;19986;-85
2023/03/14 05:59:01;;;;;;;;;;;8.90;99.90;;;;;;5065677;28;19924;-85
2023/03/14 06:01:27;;;;;;;;;;;8.80;99.90;;;;;;5091880;28;19928;-85
2023/03/14 06:03:52;;;;;;;;;;;8.80;99.90;;;;;;5064585;28;19924;-85
2023/03/14 06:06:18;;;;;;;;;;;8.80;99.90;;;;;;5062907;28;19925;-85
2023/03/14 06:08:43;;;;;;;;;;;8.80;99.90;;;;;;5062041;28;19932;-86
2023/03/14 06:11:09;;;;;;;;;;;8.80;99.90;;;;;;5062727;28;19951;-86
2023/03/14 06:13:35;;;;;;;;;;;8.80;99.90;;;;;;5092444;28;19971;-84
2023/03/14 06:16:00;;;;;;;;;;;8.80;99.90;;;;;;5082805;28;19950;-84
2023/03/14 06:18:26;;;;;;;;;;;8.80;99.90;;;;;;5066229;28;19985;-85
2023/03/14 06:20:55;;;;;;;;;;;8.80;99.90;;;;;;5085048;28;19931;-85
2023/03/14 06:23:21;;;;;;;;;;;8.80;99.90;;;;;;5096285;28;19932;-85
2023/03/14 06:25:47;;;;;;;;;;;8.80;99.90;;;;;;5064491;28;19932;-85
2023/03/14 06:28:12;;;;;;;;;;;8.80;99.90;;;;;;5097754;28;20013;-85
2023/03/14 06:30:38;;;;;;;;;;;8.80;99.90;;;;;;5066235;28;19924;-85
2023/03/14 06:33:03;;;;;;;;;;;8.80;99.90;;;;;;5081602;28;19929;-85
2023/03/14 06:35:29;;;;;;;;;;;8.80;99.90;;;;;;5063191;28;20032;-84
2023/03/14 06:37:55;;;;;;;;;;;8.80;99.90;;;;;;5057710;28;19928;-86
2023/03/14 06:40:20;;;;;;;;;;;8.80;99.90;;;;;;5082660;28;19936;-86
2023/03/14 06:42:46;;;;;;;;;;;8.80;99.90;;;;;;5068577;28;19946;-84
2023/03/14 06:45:12;;;;;;;;;;;8.90;99.90;;;;;;5096846;28;19924;-84
2023/03/14 06:47:40;;;;;;;;;;;8.90;99.90;;;;;;5062875;28;19931;-84
2023/03/14 06:50:07;;;;;;;;;;;8.90;99.90;;;;;;5083153;28;19924;-84
2023/03/14 06:52:32;;;;;;;;;;;8.90;99.90;;;;;;5063210;28;19924;-84
2023/03/14 06:54:58;;;;;;;;;;;8.90;99.90;;;;;;5083329;28;20377;-84
2023/03/14 06:57:23;;;;;;;;;;;9.00;99.90;;;;;;5063568;28;19988;-84
2023/03/14 06:59:49;;;;;;;;;;;9.00;99.90;;;;;;5059889;28;19947;-84
2023/03/14 07:02:14;;;;;;;;;;;9.00;99.90;;;;;;5062278;28;19943;-84
2023/03/14 07:04:40;;;;;;;;;;;8.90;99.90;;;;;;5063671;28;20434;-83
2023/03/14 07:07:06;;;;;;;;;;;8.90;99.90;;;;;;5063648;28;19932;-83
2023/03/14 07:09:32;;;;;;;;;;;8.90;99.90;;;;;;5058887;28;20355;-83
2023/03/14 07:11:58;;;;;;;;;;;8.90;99.90;;;;;;5062392;28;19932;-84
2023/03/14 07:14:23;;;;;;;;;;;8.80;99.90;;;;;;5060446;28;19996;-83
2023/03/14 07:16:49;;;;;;;;;;;8.80;99.90;;;;;;5084066;28;19924;-84
2023/03/14 07:19:15;;;;;;;;;;;8.70;99.90;;;;;;5067654;28;19931;-83
2023/03/14 07:21:40;;;;;;;;;;;8.70;99.90;;;;;;5046527;28;19994;-83
2023/03/14 07:24:06;;;;;;;;;;;8.60;99.90;;;;;;5094156;28;19956;-83
2023/03/14 07:26:31;;;;;;;;;;;8.60;99.90;;;;;;5058944;28;19937;-83
2023/03/14 07:28:57;;;;;;;;;;;8.50;99.90;;;;;;5069066;28;19924;-83
2023/03/14 07:31:23;;;;;;;;;;;8.50;99.90;;;;;;5088304;28;19924;-83
2023/03/14 07:33:48;;;;;;;;;;;8.40;99.90;;;;;;5062833;28;19932;-83
2023/03/14 07:36:14;;;;;;;;;;;8.30;99.90;;;;;;5092524;28;20269;-83
2023/03/14 07:38:40;;;;;;;;;;;8.30;99.90;;;;;;5061875;28;19932;-86
2023/03/14 07:41:05;;;;;;;;;;;8.10;99.90;;;;;;5079316;28;19932;-83
2023/03/14 07:43:31;;;;;;;;;;;7.90;99.90;;;;;;5089298;28;19939;-82
2023/03/14 07:45:57;;;;;;;;;;;7.70;99.90;;;;;;5064860;28;19949;-82
2023/03/14 07:48:24;;;;;;;;;;;7.40;99.90;;;;;;5091496;28;19970;-82
2023/03/14 07:50:51;;;;;;;;;;;7.20;99.90;;;;;;5061168;28;20496;-83
2023/03/14 07:53:16;;;;;;;;;;;7.00;99.90;;;;;;5060107;28;19925;-83
2023/03/14 07:55:42;;;;;;;;;;;6.90;99.90;;;;;;5091053;28;20415;-83
2023/03/14 07:58:07;;;;;;;;;;;6.80;99.90;;;;;;5062456;28;19947;-83
2023/03/14 08:00:33;;;;;;;;;;;6.70;99.90;;;;;;5063225;28;19935;-84
2023/03/14 08:02:58;;;;;;;;;;;6.50;99.90;;;;;;5063338;28;19928;-82
2023/03/14 08:05:24;;;;;;;;;;;6.40;99.90;;;;;;5089427;28;19932;-83
2023/03/14 08:07:50;;;;;;;;;;;6.20;99.90;;;;;;5058176;28;19924;-83
2023/03/14 08:10:22;;;;;;;;;;;6.00;99.90;;;;;;5056218;28;19928;-82
2023/03/14 08:12:53;;;;;;;;;;;5.80;99.90;;;;;;5061002;28;19928;-83
2023/03/14 08:15:19;;;;;;;;;;;5.70;99.90;;;;;;5091734;28;19931;-83
2023/03/14 08:17:44;;;;;;;;;;;5.70;99.90;;;;;;5064870;28;19932;-83
2023/03/14 08:20:11;;;;;;;;;;;5.60;99.90;;;;;;5061931;28;19975;-83
2023/03/14 08:22:37;;;;;;;;;;;5.50;99.90;;;;;;5058699;28;19925;-83
2023/03/14 08:25:03;;;;;;;;;;;5.50;99.90;;;;;;5063123;28;20011;-83
2023/03/14 08:27:28;;;;;;;;;;;5.40;99.90;;;;;;5043987;28;19924;-83
2023/03/14 08:29:54;;;;;;;;;;;5.40;99.90;;;;;;5079038;28;19942;-83
2023/03/14 08:32:20;;;;;;;;;;;5.40;99.90;;;;;;5079754;28;20009;-84
2023/03/14 08:34:46;;;;;;;;;;;5.40;99.90;;;;;;5061970;28;19925;-83
2023/03/14 08:37:12;;;;;;;;;;;5.40;99.90;;;;;;5062200;28;20152;-82
2023/03/14 08:39:37;;;;;;;;;;;5.30;99.90;;;;;;5059994;28;19924;-83
2023/03/14 08:42:03;;;;;;;;;;;5.40;99.90;;;;;;5061625;28;19948;-83
2023/03/14 08:44:28;;;;;;;;;;;5.40;99.90;;;;;;5059364;28;19925;-82
2023/03/14 08:46:54;;;;;;;;;;;5.40;99.90;;;;;;5076327;28;19932;-83
2023/03/14 08:49:20;;;;;;;;;;;5.40;99.90;;;;;;5063312;28;19936;-82
2023/03/14 08:51:45;;;;;;;;;;;5.50;99.90;;;;;;5094427;28;19925;-83
2023/03/14 08:54:11;;;;;;;;;;;5.50;99.90;;;;;;5049391;28;19967;-82
2023/03/14 08:56:40;;;;;;;;;;;5.60;99.90;;;;;;5076008;28;19924;-83
2023/03/14 08:59:05;;;;;;;;;;;5.60;99.90;;;;;;5080009;28;19924;-83
2023/03/14 09:01:31;;;;;;;;;;;5.60;99.90;;;;;;5060005;28;19989;-82
2023/03/14 09:03:56;;;;;;;;;;;5.60;99.90;;;;;;5079708;28;19947;-83
2023/03/14 09:06:22;;;;;;;;;;;5.60;99.90;;;;;;5092917;28;19924;-83
2023/03/14 09:08:47;;;;;;;;;;;5.70;99.90;;;;;;5076932;28;19932;-82
2023/03/14 09:11:13;;;;;;;;;;;5.80;99.90;;;;;;5083656;28;19929;-83
2023/03/14 09:13:39;;;;;;;;;;;5.80;99.90;;;;;;5090841;28;19925;-82
2023/03/14 09:16:06;;;;;;;;;;;5.90;99.90;;;;;;5062868;28;19932;-82
2023/03/14 09:18:31;;;;;;;;;;;5.90;99.90;;;;;;5059661;28;19924;-82
2023/03/14 09:20:57;;;;;;;;;;;6.00;99.90;;;;;;5061821;28;19985;-83
2023/03/14 09:23:22;;;;;;;;;;;6.00;99.90;;;;;;5093615;28;19925;-82
2023/03/14 09:25:48;;;;;;;;;;;6.10;99.90;;;;;;5065245;28;19946;-82
2023/03/14 09:28:14;;;;;;;;;;;6.30;99.90;;;;;;5063214;28;19928;-83
2023/03/14 09:30:40;;;;;;;;;;;6.40;99.90;;;;;;5059210;28;19924;-83
2023/03/14 09:33:05;;;;;;;;;;;6.60;99.90;;;;;;5062621;28;19931;-83
2023/03/14 09:35:33;;;;;;;;;;;6.80;99.90;;;;;;5059822;28;20421;-83
2023/03/14 09:37:58;;;;;;;;;;;6.90;99.90;;;;;;5064978;28;19928;-83
2023/03/14 09:40:24;;;;;;;;;;;7.00;99.90;;;;;;5093956;28;19936;-83
2023/03/14 09:42:50;;;;;;;;;;;7.00;99.90;;;;;;5061033;28;19967;-82
2023/03/14 09:45:27;;;;;;;;;;;7.00;99.90;;;;;;5058481;28;19932;-82
2023/03/14 09:47:53;;;;;;;;;;;7.20;99.90;;;;;;5077452;28;19931;-82
2023/03/14 09:50:19;;;;;;;;;;;7.30;99.90;;;;;;5037483;28;20412;-82
2023/03/14 09:53:11;;;;;;;;;;;7.50;99.90;;;;;;5063948;28;19972;-81
2023/03/14 09:55:36;;;;;;;;;;;7.50;99.90;;;;;;5074506;28;22417;-81
2023/03/14 09:58:03;;;;;;;;;;;7.50;99.90;;;;;;5062886;28;19935;-83
2023/03/14 10:00:30;;;;;;;;;;;7.40;99.90;;;;;;5091255;28;19934;-82
2023/03/14 10:02:59;;;;;;;;;;;7.60;99.90;;;;;;5094736;28;19925;-82
2023/03/14 10:05:26;;;;;;;;;;;7.70;99.90;;;;;;5060503;28;20018;-82
2023/03/14 10:07:52;;;;;;;;;;;7.60;99.90;;;;;;5083167;28;19935;-83
2023/03/14 10:10:21;;;;;;;;;;;7.70;99.90;;;;;;5064167;28;19924;-82
2023/03/14 10:12:54;;;;;;;;;;;7.70;99.90;;;;;;5071561;28;19979;-83
2023/03/14 10:15:23;;;;;;;;;;;7.80;99.90;;;;;;5053011;28;19925;-82
2023/03/14 10:17:50;;;;;;;;;;;7.70;99.90;;;;;;5046597;28;19925;-82
2023/03/14 10:20:36;;;;;;;;;;;7.40;99.90;;;;;;5081597;28;19925;-82
2023/03/14 10:23:01;;;;;;;;;;;6.90;99.90;;;;;;5064892;28;19924;-82
2023/03/14 10:25:32;;;;;;;;;;;6.60;99.90;;;;;;5073583;28;19928;-83
2023/03/14 10:27:57;;;;;;;;;;;6.40;99.90;;;;;;5044427;28;19959;-83
2023/03/14 10:30:46;;;;;;;;;;;6.40;99.90;;;;;;5062192;28;20367;-85
2023/03/14 10:33:32;;;;;;;;;;;6.40;99.90;;;;;;5052827;28;19925;-84
2023/03/14 10:36:02;;;;;;;;;;;6.20;99.90;;;;;;5052696;28;19928;-84
2023/03/14 10:38:29;;;;;;;;;;;6.30;99.90;;;;;;5070480;28;19928;-84
2023/03/14 10:40:55;;;;;;;;;;;6.30;99.90;;;;;;5061277;28;19932;-82
2023/03/14 10:43:31;;;;;;;;;;;6.30;99.90;;;;;;5061895;28;19924;-83
2023/03/14 10:45:59;;;;;;;;;;;6.30;99.90;;;;;;5063752;28;19943;-83
2023/03/14 10:48:32;;;;;;;;;;;6.40;99.90;;;;;;5094045;28;19928;-83
2023/03/14 10:51:03;;;;;;;;;;;6.40;99.90;;;;;;5082989;28;19960;-84
2023/03/14 10:53:33;;;;;;;;;;;6.60;99.90;;;;;;5079229;28;19978;-84
2023/03/14 10:56:02;;;;;;;;;;;6.70;99.90;;;;;;5064880;28;19932;-84
2023/03/14 10:58:29;;;;;;;;;;;6.90;99.90;;;;;;5062445;28;19964;-84
2023/03/14 11:00:58;;;;;;;;;;;7.10;99.90;;;;;;5059646;28;20006;-86
2023/03/14 11:03:24;;;;;;;;;;;7.20;99.90;;;;;;5067414;28;19954;-85
2023/03/14 11:05:53;;;;;;;;;;;7.30;99.90;;;;;;5063273;28;19931;-87
2023/03/14 11:08:44;;;;;;;;;;;7.50;99.90;;;;;;5071413;28;19946;-86
2023/03/14 11:11:09;;;;;;;;;;;7.60;99.90;;;;;;5063522;28;19925;-85
2023/03/14 11:13:40;;;;;;;;;;;7.60;99.90;;;;;;5070501;28;19924;-87
2023/03/14 11:16:19;;;;;;;;;;;7.50;99.90;;;;;;5082825;28;19939;-86
2023/03/14 11:18:44;;;;;;;;;;;7.40;99.90;;;;;;5072156;28;19924;-87
2023/03/14 11:21:48;;;;;;;;;;;7.20;99.90;;;;;;5062353;28;19931;-86
2023/03/14 11:24:27;;;;;;;;;;;7.10;99.90;;;;;;5018091;28;19925;-87
2023/03/14 11:27:03;;;;;;;;;;;7.20;99.90;;;;;;5002219;28;19926;-87
2023/03/14 11:29:47;;;;;;;;;;;7.40;99.90;;;;;;5041680;28;19928;-86
2023/03/14 11:32:36;;;;;;;;;;;7.50;99.90;;;;;;5063593;28;20007;-86
2023/03/14 11:35:05;;;;;;;;;;;7.70;99.90;;;;;;5054005;28;19925;-86
2023/03/14 11:37:35;;;;;;;;;;;7.70;99.70;;;;;;5064540;28;19975;-87
2023/03/14 11:40:10;;;;;;;;;;;7.70;99.00;;;;;;5095450;28;20397;-86
2023/03/14 11:42:36;;;;;;;;;;;7.70;96.50;;;;;;5063882;28;20013;-86
2023/03/14 11:45:02;;;;;;;;;;;7.70;95.90;;;;;;5062673;28;19976;-86
2023/03/14 11:47:41;;;;;;;;;;;7.90;95.20;;;;;;5065229;28;19925;-86
2023/03/14 11:50:21;;;;;;;;;;;8.10;91.90;;;;;;5062826;28;19929;-86
2023/03/14 11:52:55;;;;;;;;;;;8.30;90.60;;;;;;5061359;28;19924;-85
2023/03/14 11:55:27;;;;;;;;;;;8.30;85.40;;;;;;5078956;28;19942;-84
2023/03/14 11:57:56;;;;;;;;;;;8.20;86.50;;;;;;5096373;28;19931;-85
2023/03/14 12:00:24;;;;;;;;;;;8.10;90.10;;;;;;5094613;28;20344;-84
2023/03/14 12:02:56;;;;;;;;;;;7.90;87.90;;;;;;5072996;28;19960;-84
2023/03/14 12:05:21;;;;;;;;;;;7.90;87.50;;;;;;5060467;28;20294;-84
2023/03/14 12:08:06;;;;;;;;;;;8.10;91.20;;;;;;5071675;28;19929;-84
2023/03/14 12:10:37;;;;;;;;;;;8.30;90.70;;;;;;5058481;28;19924;-83
2023/03/14 12:13:03;;;;;;;;;;;8.40;85.00;;;;;;5059970;28;19929;-84
2023/03/14 12:15:29;;;;;;;;;;;8.50;86.20;;;;;;5064179;28;20814;-85
2023/03/14 12:17:55;;;;;;;;;;;8.40;83.40;;;;;;5062979;28;19929;-85
2023/03/14 12:20:24;;;;;;;;;;;8.30;82.40;;;;;;5077777;28;19971;-86
2023/03/14 12:22:54;;;;;;;;;;;8.40;83.70;;;;;;5057921;28;19934;-84
2023/03/14 12:25:25;;;;;;;;;;;8.50;82.10;;;;;;5097377;28;19947;-85
2023/03/14 12:27:56;;;;;;;;;;;8.60;83.60;;;;;;5082693;28;19925;-85
2023/03/14 12:30:28;;;;;;;;;;;9.00;84.30;;;;;;5059209;28;19925;-85
2023/03/14 12:33:09;;;;;;;;;;;9.20;79.90;;;;;;5093928;28;19925;-86
2023/03/14 12:35:39;;;;;;;;;;;9.30;74.80;;;;;;5058240;28;19935;-85
2023/03/14 12:38:06;;;;;;;;;;;9.20;73.80;;;;;;5063416;28;20434;-85
2023/03/14 12:40:32;;;;;;;;;;;9.10;74.70;;;;;;5060154;28;19924;-84
2023/03/14 12:43:03;;;;;;;;;;;9.00;74.50;;;;;;5062894;28;20345;-85
2023/03/14 12:45:30;;;;;;;;;;;8.90;74.50;;;;;;5078206;28;19950;-86
2023/03/14 12:48:09;;;;;;;;;;;8.80;74.40;;;;;;5065127;28;19950;-85
2023/03/14 12:50:37;;;;;;;;;;;8.80;75.60;;;;;;5066037;28;19935;-85
2023/03/14 12:53:02;;;;;;;;;;;8.90;73.80;;;;;;5079404;28;19924;-85
2023/03/14 12:55:42;;;;;;;;;;;8.90;73.30;;;;;;5060436;28;20007;-85
2023/03/14 12:58:22;;;;;;;;;;;8.90;74.00;;;;;;5062439;28;19928;-85
2023/03/14 13:00:51;;;;;;;;;;;8.90;75.80;;;;;;5059198;28;20346;-85
2023/03/14 13:03:22;;;;;;;;;;;8.70;75.10;;;;;;5091869;28;19928;-85
2023/03/14 13:05:51;;;;;;;;;;;8.50;77.10;;;;;;5060365;28;19928;-83
2023/03/14 13:08:32;;;;;;;;;;;8.30;78.20;;;;;;5078857;28;20351;-85
2023/03/14 13:10:57;;;;;;;;;;;8.40;82.30;;;;;;5063271;28;20488;-85
2023/03/14 13:13:27;;;;;;;;;;;8.40;81.50;;;;;;5090869;28;19924;-85
2023/03/14 13:15:57;;;;;;;;;;;8.50;81.70;;;;;;5075972;28;19924;-85
2023/03/14 13:18:33;;;;;;;;;;;8.40;81.20;;;;;;5064700;28;19924;-85
2023/03/14 13:21:02;;;;;;;;;;;8.20;83.60;;;;;;5066886;28;19928;-86
2023/03/14 13:23:29;;;;;;;;;;;8.10;84.00;;;;;;5060608;28;19929;-85
2023/03/14 13:25:55;;;;;;;;;;;8.20;85.40;;;;;;5076239;28;19932;-86
2023/03/14 13:28:21;;;;;;;;;;;8.30;84.90;;;;;;5063041;28;19935;-86
2023/03/14 13:30:48;;;;;;;;;;;8.10;79.10;;;;;;5059020;28;20425;-85
2023/03/14 13:33:15;;;;;;;;;;;7.80;78.10;;;;;;5059798;28;19928;-83
2023/03/14 13:35:43;;;;;;;;;;;7.50;76.80;;;;;;5089089;28;19983;-84
2023/03/14 13:38:22;;;;;;;;;;;7.60;78.30;;;;;;5079073;28;19971;-84
2023/03/14 13:40:49;;;;;;;;;;;7.80;78.20;;;;;;5043533;28;20456;-84
2023/03/14 13:43:16;;;;;;;;;;;8.30;81.10;;;;;;5063512;28;19967;-84
2023/03/14 13:45:50;;;;;;;;;;;8.60;76.90;;;;;;5065185;28;20102;-84
2023/03/14 13:48:16;;;;;;;;;;;8.70;68.80;;;;;;5063555;28;19924;-84
2023/03/14 13:50:52;;;;;;;;;;;8.70;72.60;;;;;;5098382;28;19936;-83
2023/03/14 13:53:18;;;;;;;;;;;8.80;70.90;;;;;;5052358;28;19928;-84
2023/03/14 13:55:44;;;;;;;;;;;8.80;66.60;;;;;;5096890;28;19947;-85
2023/03/14 13:58:13;;;;;;;;;;;8.60;68.20;;;;;;5097721;28;19928;-84
2023/03/14 14:00:39;;;;;;;;;;;8.60;73.60;;;;;;5063351;28;19935;-84
2023/03/14 14:03:10;;;;;;;;;;;8.60;71.80;;;;;;5099004;28;19928;-84
2023/03/14 14:05:37;;;;;;;;;;;8.40;70.20;;;;;;5062502;28;19971;-84
2023/03/14 14:08:04;;;;;;;;;;;8.10;71.10;;;;;;5077851;28;19950;-83
2023/03/14 14:10:30;;;;;;;;;;;8.00;69.20;;;;;;5063644;28;19935;-83
2023/03/14 14:12:59;;;;;;;;;;;7.90;68.70;;;;;;5079052;28;19924;-84
2023/03/14 14:15:29;;;;;;;;;;;7.90;71.70;;;;;;5066983;28;19958;-84
2023/03/14 14:17:57;;;;;;;;;;;7.90;71.40;;;;;;5071140;28;20306;-84
2023/03/14 14:20:34;;;;;;;;;;;8.20;74.00;;;;;;5098078;28;19932;-84
2023/03/14 14:23:19;;;;;;;;;;;8.30;72.90;;;;;;5062919;28;19935;-84
2023/03/14 14:25:45;;;;;;;;;;;8.50;73.00;;;;;;5062603;28;20324;-85
2023/03/14 14:28:18;;;;;;;;;;;8.60;70.30;;;;;;5065090;28;19928;-85
2023/03/14 14:30:43;;;;;;;;;;;8.40;70.60;;;;;;5061543;28;19924;-85
2023/03/14 14:33:19;;;;;;;;;;;8.10;69.40;;;;;;5064366;28;19931;-84